LFRK/CFR METAR and TAF weather

Enter ICAO airport designator
Station Type Date Time Source
LFRK METAR 2019/12/11 12:00 UTC NOAA

LFRK 111200Z AUTO 21012KT CAVOK 09/04 Q1008 TEMPO 4000 SHRA BKN020TCU


Station Type Date Time Source
LFRK Decoded METAR 2019/12/11 12:00 UTC NOAA

Caen, France (LFRK) 49-11N 000-27W 67M
Dec 11, 2019 - 07:00 AM EST / 2019.12.11 1200 UTC
Wind: from the SSW (210 degrees) at 14 MPH (12 KT):0
Visibility: greater than 7 mile(s):0
Weather: Towering cumulus clouds observed
Temperature: 48 F (9 C)
Dew Point: 39 F (4 C)
Relative Humidity: 70%
Pressure (altimeter): 29.77 in. Hg (1008 hPa)
ob: LFRK 111200Z AUTO 21012KT CAVOK 09/04 Q1008 TEMPO 4000 SHRA BKN020TCU
cycle: 12

Station Type Date Time Source
LFRK TAF UTC NOAA

Error!

Example: see airport list